createdAt,value
2023-03-16T00:00:13.735Z,1.87
2023-03-16T00:02:44.269Z,2.33
2023-03-16T00:05:14.597Z,2.43
2023-03-16T00:07:43.524Z,2.00
2023-03-16T00:10:13.613Z,2.30
2023-03-16T00:12:43.450Z,2.67
2023-03-16T00:15:12.509Z,1.83
2023-03-16T00:17:40.552Z,1.77
2023-03-16T00:20:12.693Z,2.00
2023-03-16T00:22:41.756Z,1.83
2023-03-16T00:25:10.926Z,1.60
2023-03-16T00:27:39.142Z,2.57
2023-03-16T00:30:08.937Z,1.83
2023-03-16T00:32:39.824Z,1.60
2023-03-16T00:35:10.617Z,1.90
2023-03-16T00:37:39.555Z,1.90
2023-03-16T00:40:12.060Z,1.70
2023-03-16T00:42:40.154Z,1.83
2023-03-16T00:45:10.402Z,2.07
2023-03-16T00:47:38.354Z,1.97
2023-03-16T00:50:09.038Z,2.03
2023-03-16T00:52:38.077Z,2.20
2023-03-16T00:55:08.488Z,2.10
2023-03-16T00:57:36.529Z,1.60
2023-03-16T01:00:12.658Z,1.57
2023-03-16T01:02:40.615Z,1.90
2023-03-16T01:05:12.471Z,1.93
2023-03-16T01:07:40.937Z,2.53
2023-03-16T01:10:10.895Z,2.20
2023-03-16T01:12:39.136Z,2.20
2023-03-16T01:15:08.861Z,1.90
2023-03-16T01:17:36.881Z,1.60
2023-03-16T01:20:11.958Z,1.93
2023-03-16T01:22:42.172Z,1.97
2023-03-16T01:25:12.866Z,2.07
2023-03-16T01:27:40.858Z,1.90
2023-03-16T01:30:12.276Z,1.90
2023-03-16T01:32:40.468Z,2.00
2023-03-16T01:35:10.193Z,1.77
2023-03-16T01:37:38.455Z,1.50
2023-03-16T01:40:12.211Z,1.47
2023-03-16T01:42:47.249Z,2.33
2023-03-16T01:46:22.961Z,2.00
2023-03-16T01:49:07.971Z,1.63
2023-03-16T01:51:44.409Z,1.43
2023-03-16T01:54:23.139Z,1.37
2023-03-16T01:57:00.599Z,1.50
2023-03-16T01:59:34.284Z,1.87
2023-03-16T02:02:03.576Z,1.20
2023-03-16T02:04:44.130Z,1.57
2023-03-16T02:07:16.812Z,1.60
2023-03-16T02:09:47.647Z,1.23
2023-03-16T02:12:19.398Z,1.40
2023-03-16T02:14:48.687Z,1.67
2023-03-16T02:17:19.286Z,1.50
2023-03-16T02:20:00.770Z,1.20
2023-03-16T02:22:29.420Z,1.33
2023-03-16T02:24:57.418Z,2.13
2023-03-16T02:27:35.556Z,2.00
2023-03-16T02:30:11.546Z,1.83
2023-03-16T02:32:41.814Z,1.83
2023-03-16T02:35:14.561Z,1.43
2023-03-16T02:37:42.765Z,1.90
2023-03-16T02:40:25.006Z,1.17
2023-03-16T02:43:02.679Z,1.30
2023-03-16T02:45:36.637Z,1.53
2023-03-16T02:48:14.509Z,1.63
2023-03-16T02:50:47.952Z,1.77
2023-03-16T02:53:16.718Z,1.47
2023-03-16T02:55:45.774Z,1.77
2023-03-16T02:58:13.881Z,1.53
2023-03-16T03:00:45.233Z,2.37
2023-03-16T03:03:14.119Z,1.83
2023-03-16T03:05:42.316Z,1.73
2023-03-16T03:08:10.447Z,1.60
2023-03-16T03:10:38.433Z,1.50
2023-03-16T03:13:07.560Z,2.00
2023-03-16T03:15:36.271Z,1.87
2023-03-16T03:18:05.699Z,1.57
2023-03-16T03:20:33.904Z,1.53
2023-03-16T03:23:02.955Z,2.03
2023-03-16T03:25:34.605Z,1.40
2023-03-16T03:28:05.932Z,2.23
2023-03-16T03:30:34.248Z,2.27
2023-03-16T03:33:02.700Z,2.47
2023-03-16T03:35:32.620Z,1.73
2023-03-16T03:38:00.718Z,1.60
2023-03-16T03:40:28.983Z,1.20
2023-03-16T03:42:57.220Z,1.50
2023-03-16T03:45:25.350Z,1.90
2023-03-16T03:47:55.017Z,1.70
2023-03-16T03:50:23.424Z,1.30
2023-03-16T03:52:52.750Z,1.43
2023-03-16T03:55:20.715Z,1.93
2023-03-16T03:57:48.704Z,1.70
2023-03-16T04:00:20.733Z,1.50
2023-03-16T04:02:49.151Z,1.77
2023-03-16T04:05:17.353Z,1.57
2023-03-16T04:07:45.663Z,1.57
2023-03-16T04:10:15.171Z,2.17
2023-03-16T04:12:43.175Z,2.00
2023-03-16T04:15:12.960Z,1.33
2023-03-16T04:17:40.911Z,2.17
2023-03-16T04:20:14.553Z,1.37
2023-03-16T04:22:43.445Z,2.00
2023-03-16T04:25:11.902Z,1.57
2023-03-16T04:27:41.242Z,3.17
2023-03-16T04:30:12.680Z,1.20
2023-03-16T04:32:41.631Z,1.60
2023-03-16T04:35:11.336Z,2.17
2023-03-16T04:37:39.333Z,1.43
2023-03-16T04:40:11.825Z,1.30
2023-03-16T04:42:41.144Z,1.67
2023-03-16T04:45:10.459Z,1.50
2023-03-16T04:47:38.699Z,1.60
2023-03-16T04:50:08.635Z,1.63
2023-03-16T04:52:36.846Z,2.53
2023-03-16T04:55:05.949Z,1.77
2023-03-16T04:57:34.941Z,1.57
2023-03-16T05:00:11.618Z,1.13
2023-03-16T05:02:39.976Z,1.40
2023-03-16T05:05:09.013Z,1.30
2023-03-16T05:07:37.071Z,1.90
2023-03-16T05:10:05.661Z,2.30
2023-03-16T05:12:33.654Z,1.57
2023-03-16T05:15:01.679Z,1.83
2023-03-16T05:17:31.045Z,1.40
2023-03-16T05:19:59.316Z,2.03
2023-03-16T05:22:27.418Z,1.27
2023-03-16T05:24:55.396Z,1.47
2023-03-16T05:27:23.436Z,2.37
2023-03-16T05:29:51.461Z,2.20
2023-03-16T05:32:19.456Z,1.77
2023-03-16T05:34:48.819Z,5.00
2023-03-16T05:37:16.868Z,2.67
2023-03-16T05:39:44.857Z,3.37
2023-03-16T05:42:12.840Z,3.30
2023-03-16T05:44:40.959Z,3.87
2023-03-16T05:47:09.256Z,4.53
2023-03-16T05:49:37.266Z,3.90
2023-03-16T05:52:06.869Z,3.23
2023-03-16T05:54:34.986Z,2.40
2023-03-16T05:57:03.028Z,2.80
2023-03-16T05:59:30.971Z,3.53
2023-03-16T06:01:58.967Z,2.77
2023-03-16T06:04:26.970Z,2.73
2023-03-16T06:06:54.991Z,2.77
2023-03-16T06:09:24.360Z,2.47
2023-03-16T06:11:52.298Z,2.53
2023-03-16T06:14:20.419Z,2.30
2023-03-16T06:16:48.395Z,1.93
2023-03-16T06:19:16.411Z,2.33
2023-03-16T06:21:44.493Z,2.47
2023-03-16T06:24:12.493Z,1.97
2023-03-16T06:26:42.089Z,2.20
2023-03-16T06:29:10.137Z,2.00
2023-03-16T06:31:38.355Z,1.90
2023-03-16T06:34:06.388Z,1.93
2023-03-16T06:36:34.410Z,2.00
2023-03-16T06:39:02.445Z,2.07
2023-03-16T06:41:30.429Z,2.33
2023-03-16T06:43:59.864Z,1.77
2023-03-16T06:46:29.134Z,2.13
2023-03-16T06:48:57.119Z,1.67
2023-03-16T06:51:25.197Z,1.87
2023-03-16T06:53:53.218Z,1.53
2023-03-16T06:56:21.581Z,1.87
2023-03-16T06:58:49.587Z,1.57
2023-03-16T07:01:18.970Z,2.07
2023-03-16T07:03:47.076Z,1.60
2023-03-16T07:06:15.058Z,2.23
2023-03-16T07:08:43.366Z,1.47
2023-03-16T07:11:11.567Z,1.40
2023-03-16T07:13:39.782Z,1.60
2023-03-16T07:16:08.732Z,1.70
2023-03-16T07:18:39.900Z,1.73
2023-03-16T07:21:08.057Z,1.87
2023-03-16T07:23:36.132Z,1.63
2023-03-16T07:26:04.528Z,1.93
2023-03-16T07:28:32.541Z,1.57
2023-03-16T07:31:04.248Z,1.40
2023-03-16T07:33:33.133Z,1.43
2023-03-16T07:36:04.599Z,1.20
2023-03-16T07:38:33.473Z,1.97
2023-03-16T07:41:01.929Z,1.97
2023-03-16T07:43:30.241Z,1.77
2023-03-16T07:45:58.209Z,1.53
2023-03-16T07:48:26.604Z,1.80
2023-03-16T07:50:55.137Z,1.57
2023-03-16T07:53:24.806Z,1.27
2023-03-16T07:55:52.943Z,1.97
2023-03-16T07:58:21.580Z,2.10
2023-03-16T08:00:49.536Z,1.97
2023-03-16T08:03:17.645Z,1.60
2023-03-16T08:05:45.653Z,1.50
2023-03-16T08:08:15.869Z,2.33
2023-03-16T08:10:45.470Z,1.63
2023-03-16T08:13:14.007Z,1.53
2023-03-16T08:15:42.303Z,1.83
2023-03-16T08:18:10.317Z,1.60
2023-03-16T08:20:38.332Z,2.10
2023-03-16T08:23:06.872Z,1.73
2023-03-16T08:25:35.106Z,1.60
2023-03-16T08:28:04.715Z,1.30
2023-03-16T08:30:32.963Z,1.70
2023-03-16T08:33:03.102Z,2.23
2023-03-16T08:35:31.359Z,1.33
2023-03-16T08:37:59.801Z,2.33
2023-03-16T08:40:29.632Z,1.40
2023-03-16T08:42:58.132Z,1.27
2023-03-16T08:45:27.938Z,1.80
2023-03-16T08:47:56.013Z,1.57
2023-03-16T08:50:24.018Z,1.67
2023-03-16T08:52:52.078Z,1.77
2023-03-16T08:55:20.339Z,2.17
2023-03-16T08:57:48.736Z,1.63
2023-03-16T09:00:17.886Z,1.73
2023-03-16T09:02:47.855Z,1.70
2023-03-16T09:05:18.157Z,1.67
2023-03-16T09:07:48.887Z,1.77
2023-03-16T09:10:17.336Z,1.60
2023-03-16T09:12:45.793Z,1.40
2023-03-16T09:15:14.763Z,1.80
2023-03-16T09:17:44.912Z,2.00
2023-03-16T09:20:22.849Z,2.23
2023-03-16T09:22:55.591Z,2.00
2023-03-16T09:25:24.087Z,1.53
2023-03-16T09:27:52.699Z,1.33
2023-03-16T09:30:20.767Z,2.03
2023-03-16T09:32:49.140Z,1.57
2023-03-16T09:35:19.560Z,2.03
2023-03-16T09:38:04.789Z,1.70
2023-03-16T09:40:34.109Z,1.70
2023-03-16T09:43:24.790Z,1.80
2023-03-16T09:46:02.688Z,1.70
2023-03-16T09:48:35.498Z,2.13
2023-03-16T09:51:07.636Z,1.80
2023-03-16T09:53:39.161Z,1.83
2023-03-16T09:56:12.353Z,1.90
2023-03-16T09:58:40.670Z,1.70
2023-03-16T10:01:19.270Z,1.60
2023-03-16T10:04:06.649Z,1.40
2023-03-16T10:06:45.775Z,1.50
2023-03-16T10:09:28.277Z,1.40
2023-03-16T10:11:58.911Z,1.40
2023-03-16T10:14:34.662Z,1.73
2023-03-16T10:17:06.842Z,2.30
2023-03-16T10:19:41.304Z,1.77
2023-03-16T10:22:21.367Z,2.07
2023-03-16T10:25:02.492Z,1.80
2023-03-16T10:27:33.454Z,1.97
2023-03-16T10:30:07.164Z,1.47
2023-03-16T10:32:36.592Z,1.70
2023-03-16T10:35:15.879Z,2.10
2023-03-16T10:37:46.516Z,2.00
2023-03-16T10:40:15.137Z,1.30
2023-03-16T10:42:43.810Z,1.60
2023-03-16T10:45:27.573Z,1.33
2023-03-16T10:48:08.287Z,1.90
2023-03-16T10:50:37.045Z,1.63
2023-03-16T10:53:16.624Z,1.57
2023-03-16T10:55:45.757Z,1.40
2023-03-16T10:58:26.113Z,1.67
2023-03-16T11:00:55.100Z,1.70
2023-03-16T11:03:28.749Z,1.60
2023-03-16T11:06:02.453Z,1.23
2023-03-16T11:08:35.867Z,1.53
2023-03-16T11:11:13.151Z,1.50
2023-03-16T11:13:47.442Z,1.37
2023-03-16T11:16:25.636Z,1.57
2023-03-16T11:18:57.968Z,1.97
2023-03-16T11:21:39.735Z,1.33
2023-03-16T11:24:18.203Z,1.70
2023-03-16T11:26:49.957Z,1.47
2023-03-16T11:29:24.754Z,1.73
2023-03-16T11:31:56.130Z,0.93
2023-03-16T11:34:30.497Z,1.30
2023-03-16T11:37:06.465Z,1.40
2023-03-16T11:39:45.874Z,1.20
2023-03-16T11:42:31.111Z,1.63
2023-03-16T11:45:11.649Z,1.10
2023-03-16T11:48:26.259Z,1.20
2023-03-16T11:51:07.529Z,1.23
2023-03-16T11:53:53.851Z,1.70
2023-03-16T11:56:34.314Z,1.57
2023-03-16T11:59:19.549Z,1.40
2023-03-16T12:02:05.918Z,1.83
2023-03-16T12:05:10.194Z,1.00
2023-03-16T12:07:52.674Z,1.43
2023-03-16T12:10:27.299Z,1.30
2023-03-16T12:13:13.348Z,1.37
2023-03-16T12:15:47.729Z,1.30
2023-03-16T12:18:21.271Z,1.50
2023-03-16T12:20:56.170Z,1.10
2023-03-16T12:23:32.356Z,1.10
2023-03-16T12:26:03.504Z,1.03
2023-03-16T12:28:34.280Z,1.48
2023-03-16T12:31:13.103Z,1.50
2023-03-16T12:33:58.767Z,1.27
2023-03-16T12:36:52.523Z,1.30
2023-03-16T12:39:34.133Z,1.30
2023-03-16T12:42:21.756Z,1.50
2023-03-16T12:44:58.518Z,1.53
2023-03-16T12:47:33.676Z,1.43
2023-03-16T12:50:07.402Z,1.33
2023-03-16T12:52:43.523Z,1.23
2023-03-16T12:55:17.566Z,1.50
2023-03-16T12:57:49.123Z,1.20
2023-03-16T13:00:21.386Z,1.43
2023-03-16T13:02:57.200Z,1.20
2023-03-16T13:05:32.824Z,1.20
2023-03-16T13:08:11.510Z,1.10
2023-03-16T13:10:40.234Z,1.40
2023-03-16T13:13:14.953Z,1.40
2023-03-16T13:15:47.287Z,1.17
2023-03-16T13:18:24.809Z,1.00
2023-03-16T13:20:58.940Z,1.37
2023-03-16T13:23:30.013Z,1.33
2023-03-16T13:26:16.306Z,1.50
2023-03-16T13:28:51.243Z,1.70
2023-03-16T13:31:28.595Z,1.40
2023-03-16T13:34:00.014Z,1.60
2023-03-16T13:36:30.102Z,1.48
2023-03-16T13:39:05.395Z,1.23
2023-03-16T13:41:34.231Z,1.00
2023-03-16T13:44:02.662Z,1.33
2023-03-16T13:46:31.934Z,1.50
2023-03-16T13:49:01.101Z,1.53
2023-03-16T13:51:34.132Z,1.30
2023-03-16T13:54:09.393Z,1.30
2023-03-16T13:56:39.881Z,1.70
2023-03-16T13:59:10.515Z,1.40
2023-03-16T14:01:40.448Z,1.60
2023-03-16T14:04:18.652Z,1.30
2023-03-16T14:06:56.057Z,1.13
2023-03-16T14:09:30.519Z,1.17
2023-03-16T14:11:58.604Z,1.40
2023-03-16T14:14:30.844Z,1.53
2023-03-16T14:17:11.806Z,0.90
2023-03-16T14:19:44.368Z,1.10
2023-03-16T14:22:16.289Z,1.20
2023-03-16T14:24:47.815Z,1.30
2023-03-16T14:27:23.769Z,1.50
2023-03-16T14:30:18.074Z,1.13
2023-03-16T14:32:59.772Z,1.27
2023-03-16T14:35:32.198Z,1.30
2023-03-16T14:38:23.209Z,1.77
2023-03-16T14:40:55.989Z,1.50
2023-03-16T14:43:32.630Z,1.60
2023-03-16T14:46:01.936Z,1.53
2023-03-16T14:48:31.328Z,1.30
2023-03-16T14:51:02.883Z,1.50
2023-03-16T14:53:31.652Z,1.60
2023-03-16T14:56:00.780Z,1.77
2023-03-16T14:58:28.785Z,1.57
2023-03-16T15:00:57.937Z,1.50
2023-03-16T15:03:35.107Z,1.27
2023-03-16T15:06:03.921Z,1.53
2023-03-16T15:08:36.963Z,1.53
2023-03-16T15:11:07.119Z,1.20
2023-03-16T15:13:52.958Z,1.37
2023-03-16T15:16:23.022Z,1.70
2023-03-16T15:18:52.825Z,1.53
2023-03-16T15:21:24.157Z,1.20
2023-03-16T15:23:52.323Z,1.10
2023-03-16T15:26:27.114Z,1.30
2023-03-16T15:28:55.687Z,1.20
2023-03-16T15:31:24.199Z,1.30
2023-03-16T15:33:53.680Z,1.40
2023-03-16T15:36:24.218Z,2.33
2023-03-16T15:38:54.807Z,1.53
2023-03-16T15:41:24.819Z,2.40
2023-03-16T15:43:52.903Z,2.70
2023-03-16T15:46:21.131Z,2.10
2023-03-16T15:48:49.222Z,2.33
2023-03-16T15:51:24.625Z,2.30
2023-03-16T15:53:56.541Z,2.13
2023-03-16T15:56:30.139Z,2.97
2023-03-16T15:59:00.915Z,1.70
2023-03-16T16:01:34.751Z,2.23
2023-03-16T16:04:03.406Z,1.97
2023-03-16T16:06:32.857Z,2.10
2023-03-16T16:09:00.960Z,2.40
2023-03-16T16:11:29.743Z,2.93
2023-03-16T16:13:59.323Z,3.50
2023-03-16T16:16:29.911Z,3.13
2023-03-16T16:18:58.002Z,2.90
2023-03-16T16:21:29.002Z,2.50
2023-03-16T16:23:58.678Z,2.70
2023-03-16T16:26:46.908Z,3.00
2023-03-16T16:29:17.634Z,3.13
2023-03-16T16:31:46.074Z,3.10
2023-03-16T16:34:16.991Z,3.63
2023-03-16T16:36:45.505Z,3.80
2023-03-16T16:39:15.000Z,11.30
2023-03-16T16:41:43.719Z,9.50
2023-03-16T16:44:18.410Z,20.57
2023-03-16T16:46:48.088Z,22.60
2023-03-16T16:49:20.098Z,21.20
2023-03-16T16:51:48.297Z,18.03
2023-03-16T16:54:19.580Z,16.63
2023-03-16T16:56:51.798Z,14.90
2023-03-16T16:59:22.775Z,12.27
2023-03-16T17:01:53.850Z,10.90
2023-03-16T17:04:24.772Z,10.43
2023-03-16T17:06:55.577Z,9.43
2023-03-16T17:09:27.117Z,8.47
2023-03-16T17:11:58.528Z,7.73
2023-03-16T17:14:28.299Z,7.10
2023-03-16T17:16:56.981Z,7.80
2023-03-16T17:19:27.897Z,6.37
2023-03-16T17:21:58.200Z,5.17
2023-03-16T17:24:28.680Z,5.20
2023-03-16T17:27:00.248Z,5.20
2023-03-16T17:29:31.258Z,4.97
2023-03-16T17:32:00.696Z,5.07
2023-03-16T17:34:31.833Z,5.13
2023-03-16T17:37:00.019Z,5.47
2023-03-16T17:39:31.994Z,4.87
2023-03-16T17:42:02.050Z,4.87
2023-03-16T17:44:33.818Z,4.47
2023-03-16T17:47:01.961Z,4.20
2023-03-16T17:49:31.584Z,3.70
2023-03-16T17:51:59.574Z,4.00
2023-03-16T17:54:29.009Z,4.10
2023-03-16T17:56:57.078Z,3.70
2023-03-16T17:59:25.056Z,4.27
2023-03-16T18:01:53.123Z,4.73
2023-03-16T18:04:23.784Z,3.90
2023-03-16T18:06:52.226Z,5.47
2023-03-16T18:09:21.514Z,3.83
2023-03-16T18:11:52.301Z,3.27
2023-03-16T18:14:34.730Z,4.13
2023-03-16T18:17:03.540Z,4.10
2023-03-16T18:19:33.325Z,3.53
2023-03-16T18:22:01.343Z,3.50
2023-03-16T18:24:29.758Z,3.90
2023-03-16T18:26:59.070Z,4.67
2023-03-16T18:29:27.083Z,3.20
2023-03-16T18:31:59.184Z,3.63
2023-03-16T18:34:35.613Z,3.60
2023-03-16T18:37:06.045Z,3.53
2023-03-16T18:39:34.500Z,3.20
2023-03-16T18:42:03.909Z,3.63
2023-03-16T18:44:33.193Z,3.07
2023-03-16T18:47:04.641Z,3.57
2023-03-16T18:49:35.969Z,3.23
2023-03-16T18:52:05.134Z,3.43
2023-03-16T18:54:35.472Z,3.73
2023-03-16T18:57:11.752Z,2.90
2023-03-16T18:59:39.666Z,4.85
2023-03-16T19:02:28.384Z,6.43
2023-03-16T19:04:58.506Z,8.50
2023-03-16T19:07:34.231Z,8.50
2023-03-16T19:10:08.454Z,9.13
2023-03-16T19:12:37.806Z,10.33
2023-03-16T19:15:19.651Z,11.70
2023-03-16T19:17:48.523Z,10.83
2023-03-16T19:20:19.350Z,12.27
2023-03-16T19:22:49.147Z,12.90
2023-03-16T19:25:20.904Z,12.20
2023-03-16T19:27:50.543Z,14.37
2023-03-16T19:30:26.298Z,14.10
2023-03-16T19:32:54.612Z,13.57
2023-03-16T19:35:33.763Z,13.63
2023-03-16T19:38:09.282Z,14.00
2023-03-16T19:40:37.292Z,12.53
2023-03-16T19:43:07.039Z,12.87
2023-03-16T19:45:35.418Z,12.53
2023-03-16T19:48:03.723Z,12.40
2023-03-16T19:50:32.027Z,13.10
2023-03-16T19:53:00.793Z,12.23
2023-03-16T19:55:32.545Z,12.23
2023-03-16T19:58:05.908Z,12.77
2023-03-16T20:00:35.928Z,12.23
2023-03-16T20:03:04.089Z,12.00
2023-03-16T20:05:33.620Z,11.90
2023-03-16T20:08:03.621Z,10.30
2023-03-16T20:10:33.204Z,12.20
2023-03-16T20:13:02.481Z,11.40
2023-03-16T20:15:35.337Z,11.30
2023-03-16T20:18:03.513Z,11.00
2023-03-16T20:20:34.296Z,11.23
2023-03-16T20:23:02.798Z,11.40
2023-03-16T20:25:35.006Z,11.10
2023-03-16T20:28:05.015Z,10.20
2023-03-16T20:30:34.676Z,11.00
2023-03-16T20:33:03.586Z,10.33
2023-03-16T20:35:32.426Z,9.50
2023-03-16T20:38:00.539Z,9.53
2023-03-16T20:40:28.604Z,9.53
2023-03-16T20:42:56.556Z,10.47
2023-03-16T20:45:28.305Z,9.93
2023-03-16T20:47:58.294Z,8.87
2023-03-16T20:50:29.654Z,10.03
2023-03-16T20:52:57.845Z,10.20
2023-03-16T20:55:29.701Z,9.93
2023-03-16T20:57:58.456Z,9.03
2023-03-16T21:00:33.226Z,8.80
2023-03-16T21:03:05.293Z,8.83
2023-03-16T21:05:33.749Z,8.80
2023-03-16T21:08:01.728Z,8.40
2023-03-16T21:10:30.667Z,9.30
2023-03-16T21:12:59.077Z,7.60
2023-03-16T21:15:31.110Z,9.17
2023-03-16T21:18:03.545Z,9.00
2023-03-16T21:20:33.798Z,7.83
2023-03-16T21:23:03.189Z,8.20
2023-03-16T21:25:35.159Z,8.03
2023-03-16T21:28:06.008Z,7.80
2023-03-16T21:30:38.266Z,8.50
2023-03-16T21:33:20.180Z,7.20
2023-03-16T21:35:48.923Z,7.90
2023-03-16T21:38:20.796Z,7.83
2023-03-16T21:40:49.267Z,8.20
2023-03-16T21:43:17.670Z,8.60
2023-03-16T21:45:47.353Z,7.47
2023-03-16T21:48:21.476Z,7.00
2023-03-16T21:50:50.968Z,7.03
2023-03-16T21:53:23.416Z,7.93
2023-03-16T21:55:53.302Z,8.53
2023-03-16T21:58:22.095Z,6.53
2023-03-16T22:00:52.591Z,6.83
2023-03-16T22:03:37.797Z,7.20
2023-03-16T22:06:13.603Z,6.60
2023-03-16T22:08:41.684Z,7.50
2023-03-16T22:11:17.831Z,7.27
2023-03-16T22:13:46.343Z,7.80
2023-03-16T22:16:17.209Z,7.47
2023-03-16T22:18:48.474Z,7.10
2023-03-16T22:21:29.807Z,6.33
2023-03-16T22:23:59.159Z,6.70
2023-03-16T22:26:28.829Z,5.70
2023-03-16T22:28:58.130Z,6.90
2023-03-16T22:31:31.875Z,6.00
2023-03-16T22:34:02.050Z,6.10
2023-03-16T22:36:33.018Z,6.80
2023-03-16T22:39:05.279Z,6.30
2023-03-16T22:41:33.425Z,6.70
2023-03-16T22:44:02.807Z,6.30
2023-03-16T22:46:31.582Z,6.27
2023-03-16T22:49:01.114Z,6.37
2023-03-16T22:51:33.289Z,6.57
2023-03-16T22:54:04.747Z,6.13
2023-03-16T22:56:33.791Z,6.33
2023-03-16T22:59:05.766Z,6.83
2023-03-16T23:01:37.438Z,6.57
2023-03-16T23:04:15.866Z,5.97
2023-03-16T23:06:44.482Z,6.03
2023-03-16T23:09:15.269Z,6.00
2023-03-16T23:11:45.792Z,6.17
2023-03-16T23:14:15.858Z,5.53
2023-03-16T23:16:44.830Z,6.50
2023-03-16T23:19:25.190Z,5.90
2023-03-16T23:21:55.600Z,5.50
2023-03-16T23:24:24.213Z,6.33
2023-03-16T23:26:53.363Z,5.70
2023-03-16T23:29:22.885Z,7.03
2023-03-16T23:31:51.429Z,6.33
2023-03-16T23:34:23.258Z,7.00
2023-03-16T23:36:52.472Z,5.83
2023-03-16T23:39:20.549Z,8.10
2023-03-16T23:41:50.999Z,5.60
2023-03-16T23:44:22.155Z,6.70
2023-03-16T23:46:50.738Z,6.20
2023-03-16T23:49:23.679Z,5.60
2023-03-16T23:51:52.944Z,5.47
2023-03-16T23:54:24.008Z,5.50
2023-03-16T23:56:52.171Z,5.90
2023-03-16T23:59:20.877Z,5.53
